createdAt,value
2022-11-22T00:02:15.003Z,62.87
2022-11-22T00:04:43.406Z,62.42
2022-11-22T00:07:11.915Z,62.46
2022-11-22T00:09:40.739Z,62.57
2022-11-22T00:12:09.299Z,62.41
2022-11-22T00:14:37.753Z,62.29
2022-11-22T00:17:07.613Z,62.27
2022-11-22T00:19:39.503Z,62.43
2022-11-22T00:22:08.218Z,62.20
2022-11-22T00:24:36.601Z,62.04
2022-11-22T00:27:05.037Z,61.76
2022-11-22T00:29:33.448Z,61.84
2022-11-22T00:32:01.718Z,61.93
2022-11-22T00:34:31.565Z,61.78
2022-11-22T00:36:59.976Z,62.11
2022-11-22T00:39:28.568Z,61.89
2022-11-22T00:41:57.231Z,61.91
2022-11-22T00:44:25.646Z,61.28
2022-11-22T00:46:54.052Z,61.31
2022-11-22T00:49:22.327Z,61.24
2022-11-22T00:51:52.480Z,61.18
2022-11-22T00:54:20.958Z,61.20
2022-11-22T00:56:49.367Z,61.13
2022-11-22T00:59:17.737Z,60.41
2022-11-22T01:01:46.252Z,60.43
2022-11-22T01:04:14.588Z,60.05
2022-11-22T01:06:42.958Z,60.32
2022-11-22T01:09:18.219Z,60.29
2022-11-22T01:11:46.645Z,60.38
2022-11-22T01:14:17.132Z,60.37
2022-11-22T01:16:45.636Z,60.22
2022-11-22T01:19:14.914Z,60.22
2022-11-22T01:21:43.424Z,60.06
2022-11-22T01:24:13.791Z,60.33
2022-11-22T01:26:42.790Z,60.13
2022-11-22T01:29:11.556Z,60.29
2022-11-22T01:31:39.985Z,59.84
2022-11-22T01:34:08.401Z,60.02
2022-11-22T01:36:36.677Z,59.61
2022-11-22T01:39:05.154Z,59.82
2022-11-22T01:41:35.008Z,59.78
2022-11-22T01:44:19.580Z,59.60
2022-11-22T01:46:52.809Z,59.58
2022-11-22T01:49:29.009Z,59.48
2022-11-22T01:52:03.877Z,59.62
2022-11-22T01:54:37.060Z,59.29
2022-11-22T01:57:09.382Z,59.50
2022-11-22T01:59:41.246Z,59.53
2022-11-22T02:02:09.810Z,59.73
2022-11-22T02:04:39.240Z,59.50
2022-11-22T02:07:14.113Z,59.48
2022-11-22T02:09:44.784Z,59.43
2022-11-22T02:12:16.457Z,59.33
2022-11-22T02:14:45.590Z,59.20
2022-11-22T02:17:14.038Z,59.46
2022-11-22T02:19:44.992Z,59.16
2022-11-22T02:22:23.318Z,59.27
2022-11-22T02:24:56.957Z,59.25
2022-11-22T02:27:26.836Z,59.15
2022-11-22T02:29:55.116Z,59.57
2022-11-22T02:32:23.469Z,59.33
2022-11-22T02:34:53.126Z,59.70
2022-11-22T02:37:26.904Z,59.24
2022-11-22T02:39:58.528Z,59.53
2022-11-22T02:42:31.827Z,59.70
2022-11-22T02:45:00.194Z,59.20
2022-11-22T02:47:28.883Z,59.42
2022-11-22T02:49:57.147Z,59.42
2022-11-22T02:52:25.545Z,59.66
2022-11-22T02:54:53.906Z,59.19
2022-11-22T02:57:22.273Z,59.13
2022-11-22T02:59:52.016Z,59.26
2022-11-22T03:02:20.394Z,59.46
2022-11-22T03:04:48.753Z,59.28
2022-11-22T03:07:18.468Z,59.12
2022-11-22T03:09:46.959Z,58.92
2022-11-22T03:12:15.354Z,59.28
2022-11-22T03:14:44.463Z,59.25
2022-11-22T03:17:14.652Z,59.03
2022-11-22T03:19:42.975Z,59.14
2022-11-22T03:22:11.688Z,59.26
2022-11-22T03:24:40.156Z,59.11
2022-11-22T03:27:08.586Z,58.88
2022-11-22T03:29:36.866Z,59.21
2022-11-22T03:32:05.615Z,59.25
2022-11-22T03:34:35.470Z,59.45
2022-11-22T03:37:03.847Z,59.04
2022-11-22T03:39:32.318Z,59.51
2022-11-22T03:42:00.845Z,59.68
2022-11-22T03:44:29.327Z,59.73
2022-11-22T03:46:57.610Z,59.76
2022-11-22T03:49:26.012Z,59.59
2022-11-22T03:51:56.043Z,59.48
2022-11-22T03:54:24.801Z,59.65
2022-11-22T03:56:53.207Z,59.86
2022-11-22T03:59:21.528Z,59.63
2022-11-22T04:01:49.961Z,59.91
2022-11-22T04:04:18.780Z,60.01
2022-11-22T04:06:47.098Z,59.88
2022-11-22T04:09:16.946Z,59.71
2022-11-22T04:11:45.337Z,60.11
2022-11-22T04:14:31.227Z,60.02
2022-11-22T04:16:59.629Z,60.12
2022-11-22T04:19:28.234Z,60.10
2022-11-22T04:21:55.841Z,59.98
2022-11-22T04:24:43.396Z,59.91
2022-11-22T04:27:11.830Z,60.01
2022-11-22T04:29:40.201Z,60.20
2022-11-22T04:32:27.557Z,60.07
2022-11-22T04:34:56.218Z,60.16
2022-11-22T04:37:24.573Z,60.20
2022-11-22T04:39:54.304Z,60.23
2022-11-22T04:42:39.890Z,60.29
2022-11-22T04:45:09.911Z,60.21
2022-11-22T04:47:55.524Z,60.20
2022-11-22T04:50:41.267Z,60.41
2022-11-22T04:53:10.220Z,60.23
2022-11-22T04:55:40.422Z,60.21
2022-11-22T04:58:08.960Z,60.43
2022-11-22T05:00:37.693Z,60.48
2022-11-22T05:03:06.796Z,60.37
2022-11-22T05:05:37.100Z,60.23
2022-11-22T05:08:07.268Z,59.71
2022-11-22T05:10:50.023Z,60.03
2022-11-22T05:13:20.864Z,59.81
2022-11-22T05:15:51.438Z,60.21
2022-11-22T05:18:20.055Z,59.99
2022-11-22T05:20:48.672Z,60.05
2022-11-22T05:23:34.416Z,60.17
2022-11-22T05:26:03.200Z,60.26
2022-11-22T05:28:34.303Z,60.31
2022-11-22T05:31:08.246Z,60.27
2022-11-22T05:33:39.130Z,60.49
2022-11-22T05:36:08.780Z,59.94
2022-11-22T05:38:37.960Z,60.32
2022-11-22T05:41:07.963Z,60.26
2022-11-22T05:43:39.142Z,60.50
2022-11-22T05:46:09.632Z,60.37
2022-11-22T05:48:38.966Z,60.23
2022-11-22T05:51:09.555Z,60.18
2022-11-22T05:53:40.016Z,60.63
2022-11-22T05:56:08.869Z,60.27
2022-11-22T05:58:39.617Z,60.86
2022-11-22T06:01:09.588Z,60.81
2022-11-22T06:03:38.372Z,60.72
2022-11-22T06:06:08.275Z,60.89
2022-11-22T06:08:38.919Z,60.82
2022-11-22T06:11:08.516Z,61.02
2022-11-22T06:13:39.998Z,60.89
2022-11-22T06:16:10.052Z,61.21
2022-11-22T06:18:38.868Z,60.70
2022-11-22T06:21:08.859Z,61.09
2022-11-22T06:23:37.636Z,60.92
2022-11-22T06:26:08.750Z,61.17
2022-11-22T06:28:40.007Z,61.62
2022-11-22T06:31:10.082Z,61.36
2022-11-22T06:33:39.255Z,61.85
2022-11-22T06:36:09.775Z,61.92
2022-11-22T06:38:38.448Z,61.83
2022-11-22T06:41:08.889Z,61.54
2022-11-22T06:43:46.689Z,61.64
2022-11-22T06:46:17.717Z,62.25
2022-11-22T06:48:46.134Z,61.45
2022-11-22T06:51:16.517Z,62.08
2022-11-22T06:53:48.192Z,62.34
2022-11-22T06:56:19.281Z,62.50
2022-11-22T06:58:50.088Z,62.11
2022-11-22T07:01:21.076Z,61.86
2022-11-22T07:03:50.482Z,62.08
2022-11-22T07:06:20.589Z,62.22
2022-11-22T07:08:49.791Z,62.50
2022-11-22T07:11:20.010Z,62.25
2022-11-22T07:13:50.925Z,62.90
2022-11-22T07:16:21.711Z,63.07
2022-11-22T07:18:50.827Z,63.28
2022-11-22T07:21:20.717Z,63.10
2022-11-22T07:23:51.802Z,63.04
2022-11-22T07:26:21.442Z,63.00
2022-11-22T07:28:51.336Z,63.02
2022-11-22T07:31:20.356Z,62.99
2022-11-22T07:33:49.340Z,62.82
2022-11-22T07:36:19.434Z,62.71
2022-11-22T07:38:48.831Z,62.93
2022-11-22T07:41:18.947Z,63.37
2022-11-22T07:43:47.600Z,63.01
2022-11-22T07:46:23.234Z,63.21
2022-11-22T07:48:51.804Z,63.27
2022-11-22T07:51:21.037Z,63.04
2022-11-22T07:53:49.353Z,63.32
2022-11-22T07:56:18.842Z,62.93
2022-11-22T07:58:47.235Z,62.53
2022-11-22T08:01:17.523Z,62.96
2022-11-22T08:03:47.720Z,63.08
2022-11-22T08:06:16.195Z,62.91
2022-11-22T08:08:44.989Z,62.77
2022-11-22T08:11:13.731Z,63.13
2022-11-22T08:13:42.629Z,63.00
2022-11-22T08:16:13.206Z,63.14
2022-11-22T08:18:42.490Z,63.41
2022-11-22T08:21:14.517Z,63.32
2022-11-22T08:23:44.195Z,63.27
2022-11-22T08:26:14.676Z,63.22
2022-11-22T08:28:44.067Z,63.15
2022-11-22T08:31:15.618Z,63.31
2022-11-22T08:33:44.384Z,63.04
2022-11-22T08:36:14.349Z,63.04
2022-11-22T08:38:43.261Z,63.09
2022-11-22T08:41:12.666Z,63.07
2022-11-22T08:43:41.070Z,63.09
2022-11-22T08:46:09.431Z,63.29
2022-11-22T08:48:38.770Z,63.20
2022-11-22T08:51:09.513Z,63.08
2022-11-22T08:53:41.344Z,63.11
2022-11-22T08:56:12.774Z,63.20
2022-11-22T08:58:41.912Z,62.97
2022-11-22T09:01:13.269Z,62.75
2022-11-22T09:03:43.083Z,62.83
2022-11-22T09:09:29.888Z,62.69
2022-11-22T09:11:51.864Z,62.65
2022-11-22T09:14:20.803Z,62.69
2022-11-22T09:16:49.552Z,62.76
2022-11-22T09:19:18.307Z,62.87
2022-11-22T09:21:46.635Z,62.72
2022-11-22T09:24:17.186Z,62.97
2022-11-22T09:26:45.538Z,62.71
2022-11-22T09:29:14.444Z,62.73
2022-11-22T09:31:42.931Z,62.76
2022-11-22T09:34:11.229Z,62.75
2022-11-22T09:36:39.633Z,62.74
2022-11-22T09:39:08.010Z,62.59
2022-11-22T09:42:05.621Z,62.34
2022-11-22T09:44:46.578Z,62.31
2022-11-22T09:47:29.744Z,62.29
2022-11-22T09:50:06.921Z,62.32
2022-11-22T09:52:41.628Z,62.43
2022-11-22T09:55:21.382Z,62.49
2022-11-22T09:58:07.633Z,62.56
2022-11-22T10:00:36.820Z,62.46
2022-11-22T10:03:17.124Z,62.47
2022-11-22T10:05:51.137Z,62.48
2022-11-22T10:08:31.187Z,62.28
2022-11-22T10:11:02.529Z,62.52
2022-11-22T10:13:37.383Z,62.24
2022-11-22T10:16:13.219Z,62.56
2022-11-22T10:18:45.469Z,62.29
2022-11-22T10:21:15.981Z,62.24
2022-11-22T10:23:46.145Z,62.26
2022-11-22T10:26:23.671Z,62.00
2022-11-22T10:29:08.579Z,61.87
2022-11-22T10:31:45.977Z,61.20
2022-11-22T10:34:25.230Z,61.21
2022-11-22T10:37:01.904Z,61.78
2022-11-22T10:39:57.110Z,61.66
2022-11-22T10:42:42.609Z,61.71
2022-11-22T10:45:19.689Z,61.32
2022-11-22T10:48:02.548Z,61.08
2022-11-22T10:50:38.345Z,60.65
2022-11-22T10:53:18.072Z,60.47
2022-11-22T10:55:57.385Z,59.91
2022-11-22T10:58:36.720Z,60.03
2022-11-22T11:01:15.556Z,59.88
2022-11-22T11:03:47.794Z,59.59
2022-11-22T11:06:26.618Z,59.90
2022-11-22T11:11:56.557Z,60.17
2022-11-22T11:14:31.270Z,59.77
2022-11-22T11:17:02.891Z,59.41
2022-11-22T11:19:35.232Z,59.58
2022-11-22T11:22:30.498Z,59.32
2022-11-22T11:25:28.940Z,59.18
2022-11-22T11:28:00.453Z,59.36
2022-11-22T11:30:28.909Z,59.27
2022-11-22T11:32:58.752Z,59.03
2022-11-22T11:35:29.659Z,59.00
2022-11-22T11:37:58.292Z,58.81
2022-11-22T11:40:31.815Z,58.60
2022-11-22T11:43:17.262Z,58.12
2022-11-22T11:45:45.830Z,58.63
2022-11-22T11:48:28.589Z,58.10
2022-11-22T11:51:22.535Z,56.88
2022-11-22T11:53:59.501Z,57.25
2022-11-22T11:56:47.924Z,57.00
2022-11-22T11:59:19.734Z,57.24
2022-11-22T12:01:56.606Z,56.25
2022-11-22T12:04:31.765Z,56.48
2022-11-22T12:07:05.310Z,57.00
2022-11-22T12:09:36.858Z,57.28
2022-11-22T12:12:24.786Z,57.16
2022-11-22T12:15:11.175Z,57.45
2022-11-22T12:17:49.534Z,57.63
2022-11-22T12:20:24.091Z,57.68
2022-11-22T12:23:02.510Z,57.57
2022-11-22T12:25:35.967Z,57.75
2022-11-22T12:28:11.089Z,57.83
2022-11-22T12:30:42.782Z,57.74
2022-11-22T12:33:20.715Z,57.66
2022-11-22T12:35:55.648Z,57.17
2022-11-22T12:38:29.413Z,57.41
2022-11-22T12:41:00.054Z,57.82
2022-11-22T12:43:33.326Z,57.81
2022-11-22T12:46:06.497Z,57.54
2022-11-22T12:48:45.865Z,57.33
2022-11-22T12:51:26.727Z,57.16
2022-11-22T12:54:01.037Z,57.49
2022-11-22T12:56:33.958Z,57.12
2022-11-22T12:59:08.315Z,57.27
2022-11-22T13:01:44.177Z,56.87
2022-11-22T13:04:20.470Z,56.95
2022-11-22T13:06:59.114Z,57.12
2022-11-22T13:09:33.644Z,56.87
2022-11-22T13:12:06.804Z,56.84
2022-11-22T13:14:38.932Z,57.53
2022-11-22T13:17:09.079Z,56.87
2022-11-22T13:19:46.982Z,57.25
2022-11-22T13:22:23.961Z,57.08
2022-11-22T13:25:09.559Z,57.41
2022-11-22T13:27:44.500Z,57.40
2022-11-22T13:30:20.347Z,56.59
2022-11-22T13:32:52.350Z,57.13
2022-11-22T13:35:39.520Z,57.16
2022-11-22T13:38:16.275Z,57.58
2022-11-22T13:40:46.614Z,57.67
2022-11-22T13:43:49.546Z,57.58
2022-11-22T13:47:03.663Z,57.44
2022-11-22T13:49:41.211Z,57.73
2022-11-22T13:52:35.091Z,57.45
2022-11-22T13:55:34.874Z,58.13
2022-11-22T13:58:54.748Z,58.05
2022-11-22T14:01:48.575Z,58.01
2022-11-22T14:04:22.803Z,58.03
2022-11-22T14:06:53.360Z,58.16
2022-11-22T14:09:40.352Z,58.16
2022-11-22T14:12:32.516Z,58.41
2022-11-22T14:15:22.253Z,58.28
2022-11-22T14:18:01.966Z,58.68
2022-11-22T14:20:41.485Z,58.12
2022-11-22T14:23:22.106Z,58.02
2022-11-22T14:26:14.116Z,57.94
2022-11-22T14:29:19.948Z,58.07
2022-11-22T14:31:58.263Z,58.08
2022-11-22T14:34:29.385Z,58.04
2022-11-22T14:37:36.553Z,57.76
2022-11-22T14:40:16.109Z,58.08
2022-11-22T14:42:52.451Z,58.37
2022-11-22T14:45:25.486Z,58.49
2022-11-22T14:48:03.168Z,58.51
2022-11-22T14:50:38.705Z,58.55
2022-11-22T14:53:20.275Z,58.76
2022-11-22T14:55:49.696Z,59.01
2022-11-22T14:58:24.888Z,58.90
2022-11-22T15:01:15.068Z,59.09
2022-11-22T15:09:11.059Z,59.34
2022-11-22T15:09:11.235Z,59.30
2022-11-22T15:10:22.789Z,58.98
2022-11-22T15:13:09.364Z,59.47
2022-11-22T15:57:34.601Z,60.54
2022-11-22T16:00:03.218Z,60.28
2022-11-22T16:02:33.274Z,60.52
2022-11-22T16:06:08.913Z,60.03
2022-11-22T16:07:53.999Z,60.41
2022-11-22T16:10:25.527Z,60.17
2022-11-22T16:12:54.656Z,60.25
2022-11-22T16:15:29.953Z,60.27
2022-11-22T16:18:08.072Z,60.51
2022-11-22T16:20:37.500Z,60.45
2022-11-22T16:23:19.982Z,60.66
2022-11-22T16:25:51.711Z,60.35
2022-11-22T16:28:35.451Z,60.76
2022-11-22T16:31:17.584Z,60.71
2022-11-22T16:33:46.274Z,60.50
2022-11-22T16:36:17.643Z,60.53
2022-11-22T16:38:46.647Z,60.54
2022-11-22T16:41:21.381Z,60.42
2022-11-22T16:43:51.156Z,60.19
2022-11-22T16:46:19.563Z,60.11
2022-11-22T16:48:48.702Z,60.38
2022-11-22T16:51:21.785Z,60.13
2022-11-22T16:53:51.918Z,60.40
2022-11-22T16:56:24.303Z,60.48
2022-11-22T16:58:53.783Z,60.64
2022-11-22T17:01:24.264Z,60.51
2022-11-22T17:03:55.113Z,60.60
2022-11-22T17:06:25.115Z,60.38
2022-11-22T17:08:55.930Z,60.65
2022-11-22T17:11:28.036Z,60.93
2022-11-22T17:13:56.456Z,60.57
2022-11-22T17:16:24.904Z,60.68
2022-11-22T17:18:54.305Z,60.83
2022-11-22T17:21:30.204Z,60.87
2022-11-22T17:24:02.932Z,60.62
2022-11-22T17:26:35.036Z,60.76
2022-11-22T17:29:03.585Z,60.86
2022-11-22T17:31:32.985Z,60.34
2022-11-22T17:34:01.398Z,60.68
2022-11-22T17:36:31.594Z,60.78
2022-11-22T17:39:01.673Z,60.92
2022-11-22T17:41:30.565Z,60.79
2022-11-22T17:44:01.324Z,60.59
2022-11-22T17:46:31.423Z,60.74
2022-11-22T17:49:02.202Z,60.37
2022-11-22T17:51:31.876Z,60.69
2022-11-22T17:54:01.034Z,60.36
2022-11-22T17:56:30.859Z,60.68
2022-11-22T17:59:01.110Z,60.64
2022-11-22T18:01:30.540Z,60.34
2022-11-22T18:03:59.165Z,60.69
2022-11-22T18:06:29.406Z,60.84
2022-11-22T18:08:58.041Z,61.01
2022-11-22T18:11:26.677Z,60.81
2022-11-22T18:13:55.339Z,61.39
2022-11-22T18:16:29.592Z,61.07
2022-11-22T18:18:59.392Z,61.45
2022-11-22T18:21:29.545Z,61.74
2022-11-22T18:23:59.080Z,61.75
2022-11-22T18:26:43.962Z,61.51
2022-11-22T18:32:04.776Z,61.88
2022-11-22T18:34:33.300Z,62.08
2022-11-22T18:37:03.839Z,62.10
2022-11-22T18:39:35.862Z,62.06
2022-11-22T18:42:05.064Z,61.98
2022-11-22T18:44:34.847Z,62.07
2022-11-22T18:47:04.984Z,62.25
2022-11-22T18:49:33.808Z,62.00
2022-11-22T18:52:02.537Z,61.76
2022-11-22T18:54:31.399Z,61.99
2022-11-22T18:57:00.259Z,62.16
2022-11-22T18:59:28.755Z,61.92
2022-11-22T19:01:57.081Z,61.97
2022-11-22T19:04:26.860Z,61.96
2022-11-22T19:06:56.298Z,62.21
2022-11-22T19:09:24.928Z,61.94
2022-11-22T19:11:58.367Z,62.22
2022-11-22T19:14:29.174Z,62.26
2022-11-22T19:16:58.514Z,62.35
2022-11-22T19:19:32.338Z,62.30
2022-11-22T19:22:00.854Z,62.41
2022-11-22T19:24:29.926Z,62.41
2022-11-22T19:26:58.531Z,62.37
2022-11-22T19:29:27.150Z,62.52
2022-11-22T19:31:55.600Z,62.34
2022-11-22T19:34:24.170Z,62.36
2022-11-22T19:36:54.010Z,61.92
2022-11-22T19:39:22.332Z,61.93
2022-11-22T19:41:50.979Z,62.10
2022-11-22T19:44:19.381Z,62.26
2022-11-22T19:46:47.723Z,62.11
2022-11-22T19:49:16.074Z,62.83
2022-11-22T19:51:44.427Z,62.42
2022-11-22T19:54:14.202Z,62.72
2022-11-22T19:56:42.868Z,62.35
2022-11-22T19:59:15.768Z,62.57
2022-11-22T20:01:44.621Z,62.93
2022-11-22T20:04:16.003Z,62.60
2022-11-22T20:06:49.754Z,62.65
2022-11-22T20:09:20.356Z,62.50
2022-11-22T20:11:49.011Z,63.06
2022-11-22T20:14:17.410Z,62.63
2022-11-22T20:16:45.877Z,62.78
2022-11-22T20:19:15.420Z,63.26
2022-11-22T20:21:43.830Z,63.01
2022-11-22T20:24:13.399Z,62.87
2022-11-22T20:26:44.225Z,63.14
2022-11-22T20:29:14.528Z,62.93
2022-11-22T20:31:43.121Z,63.17
2022-11-22T20:34:11.934Z,63.46
2022-11-22T20:36:40.236Z,63.14
2022-11-22T20:39:10.681Z,63.08
2022-11-22T20:41:40.287Z,63.38
2022-11-22T20:44:14.295Z,62.85
2022-11-22T20:46:43.229Z,62.76
2022-11-22T20:49:11.708Z,63.26
2022-11-22T20:51:40.361Z,63.26
2022-11-22T20:54:09.610Z,63.04
2022-11-22T20:56:39.237Z,63.38
2022-11-22T20:59:07.732Z,63.26
2022-11-22T21:01:38.536Z,63.15
2022-11-22T21:04:07.167Z,63.51
2022-11-22T21:06:35.562Z,63.46
2022-11-22T21:09:04.177Z,63.33
2022-11-22T21:11:32.767Z,63.36
2022-11-22T21:14:01.227Z,63.25
2022-11-22T21:16:31.506Z,63.26
2022-11-22T21:19:02.854Z,63.11
2022-11-22T21:21:32.163Z,63.05
2022-11-22T21:24:02.325Z,62.91
2022-11-22T21:26:30.979Z,63.45
2022-11-22T21:28:59.885Z,63.43
2022-11-22T21:31:29.328Z,63.20
2022-11-22T21:33:58.005Z,63.25
2022-11-22T21:36:27.800Z,63.04
2022-11-22T21:38:56.200Z,63.16
2022-11-22T21:41:39.447Z,63.01
2022-11-22T21:44:09.075Z,63.46
2022-11-22T21:46:37.512Z,62.98
2022-11-22T21:49:06.164Z,63.05
2022-11-22T21:51:36.075Z,62.92
2022-11-22T21:54:04.885Z,63.14
2022-11-22T21:56:33.364Z,63.33
2022-11-22T21:59:01.924Z,63.50
2022-11-22T22:01:30.346Z,63.64
2022-11-22T22:03:58.776Z,63.38
2022-11-22T22:06:27.173Z,63.45
2022-11-22T22:08:56.988Z,63.44
2022-11-22T22:11:25.352Z,63.69
2022-11-22T22:13:55.350Z,63.14
2022-11-22T22:16:26.136Z,63.58
2022-11-22T22:18:54.959Z,63.58
2022-11-22T22:21:23.399Z,63.61
2022-11-22T22:23:51.745Z,63.64
2022-11-22T22:26:21.726Z,63.64
2022-11-22T22:28:50.105Z,63.85
2022-11-22T22:31:21.975Z,63.30
2022-11-22T22:33:51.827Z,63.40
2022-11-22T22:36:20.711Z,63.39
2022-11-22T22:38:49.352Z,63.30
2022-11-22T22:41:18.301Z,63.74
2022-11-22T22:43:49.657Z,63.73
2022-11-22T22:46:20.360Z,63.48
2022-11-22T22:48:49.174Z,63.78
2022-11-22T22:51:19.799Z,63.70
2022-11-22T22:53:48.716Z,63.35
2022-11-22T22:56:19.210Z,63.51
2022-11-22T22:58:49.927Z,63.46
2022-11-22T23:01:20.181Z,63.35
2022-11-22T23:03:49.926Z,63.57
2022-11-22T23:06:18.831Z,63.38
2022-11-22T23:08:49.347Z,63.72
2022-11-22T23:11:19.579Z,63.35
2022-11-22T23:13:49.348Z,63.70
2022-11-22T23:16:17.708Z,63.76
2022-11-22T23:18:46.629Z,63.81
2022-11-22T23:21:16.781Z,63.70
2022-11-22T23:23:45.174Z,63.94
2022-11-22T23:26:15.059Z,63.46
2022-11-22T23:28:43.991Z,63.53
2022-11-22T23:31:16.004Z,63.53
2022-11-22T23:33:45.349Z,63.72
2022-11-22T23:36:15.944Z,63.62
2022-11-22T23:38:44.792Z,63.54
2022-11-22T23:41:14.403Z,63.25
2022-11-22T23:43:43.275Z,63.41
2022-11-22T23:46:16.345Z,63.74
2022-11-22T23:48:45.225Z,63.72
2022-11-22T23:51:13.836Z,63.86
2022-11-22T23:53:42.428Z,63.69
2022-11-22T23:56:12.613Z,63.56
2022-11-22T23:58:41.441Z,63.97
